createdAt,value
2022-09-23T00:01:10.974Z,6.28
2022-09-23T00:03:41.878Z,6.47
2022-09-23T00:06:18.143Z,6.55
2022-09-23T00:08:45.158Z,7.47
2022-09-23T00:11:14.585Z,8.00
2022-09-23T00:13:43.331Z,10.30
2022-09-23T00:16:13.246Z,7.57
2022-09-23T00:18:39.958Z,7.63
2022-09-23T00:21:10.348Z,9.15
2022-09-23T00:23:38.076Z,9.57
2022-09-23T00:26:06.205Z,10.40
2022-09-23T00:28:33.302Z,7.43
2022-09-23T00:31:05.407Z,6.80
2022-09-23T00:33:32.221Z,8.35
2022-09-23T00:36:04.046Z,7.82
2022-09-23T00:38:30.690Z,7.60
2022-09-23T00:40:58.401Z,7.25
2022-09-23T00:43:44.558Z,6.55
2022-09-23T00:46:17.598Z,11.00
2022-09-23T00:48:45.619Z,8.50
2022-09-23T00:51:17.848Z,8.80
2022-09-23T00:53:47.093Z,7.25
2022-09-23T00:56:14.778Z,6.47
2022-09-23T00:58:44.478Z,6.13
2022-09-23T01:01:13.824Z,6.57
2022-09-23T01:03:43.367Z,8.95
2022-09-23T01:06:11.129Z,8.75
2022-09-23T01:08:37.964Z,7.93
2022-09-23T01:11:22.501Z,10.40
2022-09-23T01:14:21.782Z,7.65
2022-09-23T01:17:09.465Z,9.55
2022-09-23T01:20:00.462Z,6.68
2022-09-23T01:22:32.703Z,9.93
2022-09-23T01:25:28.561Z,6.95
2022-09-23T01:28:19.923Z,9.20
2022-09-23T01:31:05.126Z,11.50
2022-09-23T01:33:51.015Z,7.57
2022-09-23T01:36:23.929Z,8.27
2022-09-23T01:39:08.099Z,9.10
2022-09-23T01:41:44.500Z,11.07
2022-09-23T01:44:20.793Z,12.77
2022-09-23T01:47:10.801Z,22.27
2022-09-23T01:49:56.085Z,15.80
2022-09-23T01:52:38.764Z,11.88
2022-09-23T01:55:24.907Z,11.30
2022-09-23T01:58:01.037Z,9.60
2022-09-23T02:00:31.753Z,14.87
2022-09-23T02:03:06.971Z,17.50
2022-09-23T02:05:41.227Z,8.02
2022-09-23T02:08:29.721Z,11.50
2022-09-23T02:11:08.882Z,14.63
2022-09-23T02:14:00.017Z,10.52
2022-09-23T02:16:39.436Z,11.45
2022-09-23T02:19:28.063Z,18.35
2022-09-23T02:22:21.868Z,13.05
2022-09-23T02:24:49.147Z,17.60
2022-09-23T02:27:40.826Z,14.32
2022-09-23T02:30:15.144Z,10.40
2022-09-23T02:33:17.171Z,11.52
2022-09-23T02:35:53.318Z,12.65
2022-09-23T02:38:36.510Z,16.73
2022-09-23T02:41:17.483Z,18.20
2022-09-23T02:43:57.745Z,18.27
2022-09-23T02:46:24.487Z,16.73
2022-09-23T02:48:56.764Z,20.35
2022-09-23T02:51:28.776Z,16.70
2022-09-23T02:53:57.547Z,21.95
2022-09-23T02:56:24.445Z,21.63
2022-09-23T02:58:55.019Z,16.48
2022-09-23T03:01:58.590Z,18.77
2022-09-23T03:04:39.738Z,11.27
2022-09-23T03:07:18.902Z,19.35
2022-09-23T03:10:04.261Z,17.75
2022-09-23T03:12:52.898Z,20.58
2022-09-23T03:15:43.954Z,17.85
2022-09-23T03:18:35.836Z,25.52
2022-09-23T03:21:08.317Z,17.27
2022-09-23T03:23:39.328Z,17.17
2022-09-23T03:26:12.591Z,15.70
2022-09-23T03:28:42.714Z,18.58
2022-09-23T03:31:12.036Z,17.77
2022-09-23T03:33:41.456Z,17.75
2022-09-23T03:36:30.030Z,18.15
2022-09-23T03:39:05.169Z,18.85
2022-09-23T03:41:43.264Z,13.52
2022-09-23T03:44:10.922Z,19.23
2022-09-23T03:46:37.685Z,13.65
2022-09-23T03:49:16.449Z,14.32
2022-09-23T03:51:44.822Z,15.15
2022-09-23T03:54:11.735Z,14.38
2022-09-23T03:56:38.352Z,19.15
2022-09-23T03:59:04.920Z,13.50
2022-09-23T04:01:31.589Z,18.67
2022-09-23T04:03:58.186Z,11.75
2022-09-23T04:06:24.874Z,13.05
2022-09-23T04:08:51.487Z,20.42
2022-09-23T04:11:18.126Z,13.88
2022-09-23T04:13:44.742Z,17.23
2022-09-23T04:16:11.426Z,20.13
2022-09-23T04:18:38.040Z,13.73
2022-09-23T04:21:04.782Z,14.48
2022-09-23T04:23:31.548Z,15.57
2022-09-23T04:25:58.204Z,18.50
2022-09-23T04:28:25.037Z,13.77
2022-09-23T04:30:51.660Z,20.23
2022-09-23T04:33:18.344Z,16.73
2022-09-23T04:35:49.366Z,13.07
2022-09-23T04:38:15.953Z,17.38
2022-09-23T04:40:42.568Z,20.75
2022-09-23T04:43:13.435Z,20.52
2022-09-23T04:45:40.257Z,15.07
2022-09-23T04:48:07.212Z,14.75
2022-09-23T04:50:34.066Z,19.77
2022-09-23T04:53:01.812Z,17.25
2022-09-23T04:55:28.753Z,15.80
2022-09-23T04:57:55.544Z,15.45
2022-09-23T05:00:23.222Z,11.63
2022-09-23T05:02:50.510Z,12.02
2022-09-23T05:05:23.584Z,12.98
2022-09-23T05:07:51.206Z,12.10
2022-09-23T05:10:18.155Z,14.23
2022-09-23T05:12:44.727Z,13.05
2022-09-23T05:15:13.031Z,12.32
2022-09-23T05:17:39.621Z,15.57
2022-09-23T05:20:06.767Z,11.90
2022-09-23T05:22:33.332Z,12.85
2022-09-23T05:25:02.321Z,11.35
2022-09-23T05:27:29.015Z,13.50
2022-09-23T05:29:55.697Z,10.27
2022-09-23T05:32:22.628Z,12.75
2022-09-23T05:34:49.292Z,10.02
2022-09-23T05:37:15.956Z,12.63
2022-09-23T05:39:42.553Z,12.20
2022-09-23T05:42:09.870Z,10.68
2022-09-23T05:44:36.482Z,11.73
2022-09-23T05:47:03.148Z,13.18
2022-09-23T05:49:48.659Z,12.00
2022-09-23T05:52:17.146Z,11.68
2022-09-23T05:54:43.809Z,15.48
2022-09-23T05:57:10.413Z,15.38
2022-09-23T05:59:38.098Z,13.23
2022-09-23T06:02:04.828Z,16.60
2022-09-23T06:04:31.543Z,14.45
2022-09-23T06:07:02.791Z,17.88
2022-09-23T06:09:35.597Z,16.10
2022-09-23T06:12:04.378Z,14.70
2022-09-23T06:14:30.983Z,12.00
2022-09-23T06:16:57.573Z,12.27
2022-09-23T06:19:24.196Z,15.10
2022-09-23T06:21:50.831Z,16.52
2022-09-23T06:24:20.804Z,13.60
2022-09-23T06:26:49.045Z,17.17
2022-09-23T06:29:15.693Z,12.32
2022-09-23T06:31:43.253Z,11.98
2022-09-23T06:34:13.382Z,14.13
2022-09-23T06:36:44.994Z,15.05
2022-09-23T06:39:12.793Z,11.70
2022-09-23T06:41:39.465Z,13.63
2022-09-23T06:44:11.616Z,12.00
2022-09-23T06:46:38.415Z,19.25
2022-09-23T06:49:05.028Z,18.00
2022-09-23T06:51:31.886Z,9.32
2022-09-23T06:53:58.565Z,19.15
2022-09-23T06:56:25.179Z,15.27
2022-09-23T06:58:52.620Z,11.18
2022-09-23T07:01:19.697Z,9.07
2022-09-23T07:03:48.147Z,14.68
2022-09-23T07:06:14.852Z,14.95
2022-09-23T07:08:44.771Z,12.90
2022-09-23T07:11:13.021Z,17.20
2022-09-23T07:13:41.461Z,18.83
2022-09-23T07:16:09.844Z,13.93
2022-09-23T07:18:37.566Z,11.65
2022-09-23T07:21:24.170Z,16.05
2022-09-23T07:23:51.659Z,10.30
2022-09-23T07:26:19.765Z,14.18
2022-09-23T07:28:46.679Z,11.77
2022-09-23T07:31:17.178Z,11.50
2022-09-23T07:33:49.097Z,14.45
2022-09-23T07:36:18.548Z,15.85
2022-09-23T07:38:46.482Z,11.20
2022-09-23T07:41:16.827Z,16.08
2022-09-23T07:43:44.288Z,12.57
2022-09-23T07:46:16.330Z,11.55
2022-09-23T07:48:44.119Z,15.32
2022-09-23T07:51:23.624Z,14.10
2022-09-23T07:53:51.613Z,11.43
2022-09-23T07:56:19.375Z,17.42
2022-09-23T07:58:59.860Z,10.80
2022-09-23T08:01:48.441Z,9.00
2022-09-23T08:04:18.634Z,7.57
2022-09-23T08:06:47.751Z,7.97
2022-09-23T08:09:16.128Z,12.80
2022-09-23T08:11:42.844Z,8.15
2022-09-23T08:14:11.302Z,63.47
2022-09-23T08:16:37.904Z,9.98
2022-09-23T08:21:32.185Z,6.70
2022-09-23T08:23:59.198Z,6.70
2022-09-23T08:26:25.856Z,9.80
2022-09-23T08:28:56.440Z,8.52
2022-09-23T08:31:23.643Z,7.70
2022-09-23T08:33:55.689Z,6.40
2022-09-23T08:36:22.937Z,6.85
2022-09-23T08:38:49.651Z,7.20
2022-09-23T08:41:40.774Z,7.03
2022-09-23T08:44:16.365Z,9.07
2022-09-23T08:47:01.131Z,8.65
2022-09-23T08:49:45.500Z,8.20
2022-09-23T08:52:22.301Z,9.23
2022-09-23T08:54:53.181Z,6.93
2022-09-23T08:57:36.661Z,7.80
2022-09-23T09:00:04.279Z,6.22
2022-09-23T09:02:35.152Z,8.27
2022-09-23T09:05:10.309Z,7.25
2022-09-23T09:07:40.335Z,7.07
2022-09-23T09:10:24.030Z,7.32
2022-09-23T09:13:17.366Z,8.23
2022-09-23T09:16:00.857Z,10.40
2022-09-23T09:18:31.107Z,8.85
2022-09-23T09:21:08.502Z,12.20
2022-09-23T09:23:53.803Z,7.75
2022-09-23T09:26:26.947Z,7.72
2022-09-23T09:29:23.308Z,7.85
2022-09-23T09:31:51.210Z,8.50
2022-09-23T09:34:23.730Z,11.55
2022-09-23T09:37:04.661Z,7.93
2022-09-23T09:39:34.921Z,6.90
2022-09-23T09:42:02.542Z,8.23
2022-09-23T09:44:48.626Z,11.77
2022-09-23T09:47:40.450Z,6.93
2022-09-23T09:50:13.904Z,7.95
2022-09-23T09:52:43.104Z,6.47
2022-09-23T09:55:12.763Z,48.90
2022-09-23T09:58:05.081Z,7.78
2022-09-23T10:00:36.974Z,6.80
2022-09-23T10:03:13.198Z,8.13
2022-09-23T10:05:45.492Z,6.45
2022-09-23T10:08:33.415Z,6.53
2022-09-23T10:11:17.157Z,6.90
2022-09-23T10:14:18.000Z,7.07
2022-09-23T10:16:47.064Z,6.15
2022-09-23T10:19:25.995Z,8.95
2022-09-23T10:21:59.784Z,14.57
2022-09-23T10:24:32.173Z,8.30
2022-09-23T10:27:07.624Z,8.65
2022-09-23T10:29:36.986Z,8.93
2022-09-23T10:32:14.615Z,9.30
2022-09-23T10:34:46.856Z,6.40
2022-09-23T10:37:34.401Z,7.70
2022-09-23T10:40:31.735Z,11.05
2022-09-23T10:43:41.691Z,8.50
2022-09-23T10:46:39.426Z,13.40
2022-09-23T10:49:21.495Z,12.70
2022-09-23T10:51:51.192Z,7.03
2022-09-23T10:54:39.097Z,12.95
2022-09-23T10:57:38.000Z,12.23
2022-09-23T11:00:16.499Z,7.78
2022-09-23T11:02:55.413Z,7.22
2022-09-23T11:05:37.569Z,8.07
2022-09-23T11:08:13.562Z,6.90
2022-09-23T11:10:49.712Z,14.05
2022-09-23T11:13:38.132Z,6.53
2022-09-23T11:16:39.027Z,6.72
2022-09-23T11:19:50.623Z,6.57
2022-09-23T11:22:54.878Z,8.00
2022-09-23T11:25:36.200Z,5.15
2022-09-23T11:28:25.565Z,5.32
2022-09-23T11:31:15.805Z,4.10
2022-09-23T11:34:02.794Z,4.88
2022-09-23T11:39:06.750Z,6.03
2022-09-23T11:41:38.337Z,7.07
2022-09-23T11:44:20.191Z,6.28
2022-09-23T11:51:23.181Z,4.65
2022-09-23T11:54:16.114Z,4.55
2022-09-23T11:57:09.839Z,5.82
2022-09-23T12:00:09.922Z,5.10
2022-09-23T12:03:50.875Z,3.97
2022-09-23T12:06:32.756Z,6.60
2022-09-23T12:09:04.548Z,5.03
2022-09-23T12:11:50.367Z,6.60
2022-09-23T12:14:31.681Z,5.15
2022-09-23T12:17:15.090Z,4.70
2022-09-23T12:20:00.474Z,6.40
2022-09-23T12:22:52.654Z,7.03
2022-09-23T12:25:52.859Z,8.55
2022-09-23T12:28:25.078Z,4.88
2022-09-23T12:30:56.156Z,5.25
2022-09-23T12:33:27.432Z,6.00
2022-09-23T12:36:05.972Z,6.30
2022-09-23T12:38:56.301Z,5.15
2022-09-23T12:41:37.452Z,5.15
2022-09-23T12:44:23.259Z,4.75
2022-09-23T12:47:21.261Z,5.90
2022-09-23T12:49:49.456Z,4.80
2022-09-23T12:52:16.330Z,5.03
2022-09-23T12:54:43.915Z,4.75
2022-09-23T12:57:14.803Z,6.25
2022-09-23T12:59:55.844Z,4.50
2022-09-23T13:02:25.631Z,5.60
2022-09-23T13:05:17.668Z,4.35
2022-09-23T13:07:48.639Z,4.15
2022-09-23T13:10:18.226Z,7.75
2022-09-23T13:12:46.355Z,3.80
2022-09-23T13:15:29.896Z,7.15
2022-09-23T13:18:18.328Z,5.55
2022-09-23T13:20:46.757Z,5.90
2022-09-23T13:23:32.663Z,10.65
2022-09-23T13:26:10.655Z,7.85
2022-09-23T13:28:44.590Z,8.00
2022-09-23T13:31:16.287Z,9.63
2022-09-23T13:33:48.079Z,4.22
2022-09-23T13:36:17.495Z,11.48
2022-09-23T13:38:46.598Z,9.90
2022-09-23T13:41:23.547Z,6.88
2022-09-23T13:43:58.997Z,9.95
2022-09-23T13:46:29.904Z,9.05
2022-09-23T13:48:57.039Z,5.68
2022-09-23T13:51:36.655Z,4.63
2022-09-23T13:54:04.666Z,5.32
2022-09-23T13:56:33.207Z,5.68
2022-09-23T13:59:26.843Z,6.82
2022-09-23T14:02:15.167Z,2.88
2022-09-23T14:04:42.130Z,5.75
2022-09-23T14:07:12.946Z,7.68
2022-09-23T14:09:46.306Z,9.80
2022-09-23T14:12:13.409Z,16.55
2022-09-23T14:14:41.976Z,13.05
2022-09-23T14:17:10.198Z,5.60
2022-09-23T14:19:37.184Z,11.18
2022-09-23T14:22:04.033Z,7.15
2022-09-23T14:24:36.002Z,5.90
2022-09-23T14:27:15.773Z,7.47
2022-09-23T14:29:48.011Z,8.13
2022-09-23T14:32:20.951Z,3.42
2022-09-23T14:35:09.186Z,12.75
2022-09-23T14:37:57.728Z,12.90
2022-09-23T14:40:50.931Z,10.95
2022-09-23T14:43:23.911Z,10.05
2022-09-23T14:45:54.755Z,8.10
2022-09-23T14:48:31.195Z,6.18
2022-09-23T14:50:59.956Z,10.75
2022-09-23T14:53:35.673Z,5.68
2022-09-23T14:56:08.406Z,3.87
2022-09-23T14:58:56.288Z,9.90
2022-09-23T15:02:14.482Z,6.90
2022-09-23T15:05:23.314Z,19.63
2022-09-23T15:21:08.202Z,16.45
2022-09-23T15:49:28.525Z,9.68
2022-09-23T16:12:04.873Z,6.65
2022-09-23T16:14:48.394Z,11.30
2022-09-23T16:31:36.134Z,8.10
2022-09-23T16:34:30.430Z,8.00
2022-09-23T16:37:38.052Z,15.57
2022-09-23T16:49:00.899Z,10.43
2022-09-23T16:51:53.374Z,8.70
2022-09-23T16:54:27.098Z,19.55
2022-09-23T16:57:28.129Z,11.95
2022-09-23T17:00:26.347Z,8.80
2022-09-23T17:03:35.534Z,7.57
2022-09-23T17:10:27.353Z,6.20
2022-09-23T17:20:22.322Z,18.45
2022-09-23T17:22:57.033Z,17.40
2022-09-23T17:25:37.715Z,11.05
2022-09-23T17:28:18.800Z,8.23
2022-09-23T17:31:15.018Z,15.40
2022-09-23T17:34:06.918Z,19.23
2022-09-23T17:36:33.581Z,22.50
2022-09-23T17:39:00.311Z,56.15
2022-09-23T17:41:27.400Z,57.13
2022-09-23T17:44:00.926Z,30.83
2022-09-23T17:46:34.653Z,23.30
2022-09-23T17:49:11.413Z,18.48
2022-09-23T17:51:40.251Z,23.02
2022-09-23T17:54:08.456Z,16.55
2022-09-23T17:56:35.063Z,19.63
2022-09-23T17:59:02.206Z,29.17
2022-09-23T18:01:29.814Z,40.28
2022-09-23T18:04:01.506Z,42.20
2022-09-23T18:06:33.022Z,46.58
2022-09-23T18:09:03.865Z,42.85
2022-09-23T18:11:33.750Z,34.15
2022-09-23T18:14:05.749Z,23.85
2022-09-23T18:16:37.845Z,22.55
2022-09-23T18:19:05.426Z,20.75
2022-09-23T18:21:40.703Z,18.08
2022-09-23T18:26:59.467Z,20.10
2022-09-23T18:29:26.440Z,25.27
2022-09-23T18:31:53.230Z,26.50
2022-09-23T18:34:20.276Z,19.85
2022-09-23T18:36:47.187Z,32.67
2022-09-23T18:39:13.913Z,45.58
2022-09-23T18:41:41.174Z,28.05
2022-09-23T18:44:08.517Z,18.42
2022-09-23T18:46:35.486Z,16.67
2022-09-23T18:49:20.774Z,16.65
2022-09-23T18:51:51.023Z,19.10
2022-09-23T18:54:19.297Z,21.45
2022-09-23T18:56:46.406Z,17.20
2022-09-23T18:59:20.342Z,21.80
2022-09-23T19:01:49.833Z,40.03
2022-09-23T19:04:19.349Z,22.95
2022-09-23T19:06:46.550Z,23.85
2022-09-23T19:09:15.318Z,34.85
2022-09-23T19:11:42.265Z,42.30
2022-09-23T19:14:11.311Z,42.88
2022-09-23T19:16:39.416Z,40.33
2022-09-23T19:19:06.599Z,29.40
2022-09-23T19:21:34.218Z,39.45
2022-09-23T19:24:04.251Z,45.65
2022-09-23T19:26:37.461Z,46.70
2022-09-23T19:29:07.931Z,56.45
2022-09-23T19:31:40.145Z,70.05
2022-09-23T19:34:12.429Z,126.10
2022-09-23T19:36:42.517Z,146.65
2022-09-23T19:39:17.259Z,184.05
2022-09-23T19:41:44.410Z,117.03
2022-09-23T19:44:11.766Z,108.95
2022-09-23T19:46:45.129Z,103.53
2022-09-23T19:49:12.386Z,112.90
2022-09-23T19:51:39.162Z,112.32
2022-09-23T19:54:07.429Z,123.45
2022-09-23T19:56:35.492Z,143.43
2022-09-23T19:59:03.049Z,91.78
2022-09-23T20:01:31.813Z,77.25
2022-09-23T20:03:59.177Z,80.78
2022-09-23T20:06:29.869Z,77.85
2022-09-23T20:08:57.987Z,42.63
2022-09-23T20:11:28.543Z,80.88
2022-09-23T20:14:01.020Z,54.25
2022-09-23T20:16:34.569Z,53.75
2022-09-23T20:19:02.776Z,57.30
2022-09-23T20:21:29.859Z,31.00
2022-09-23T20:23:57.753Z,21.70
2022-09-23T20:26:43.024Z,19.23
2022-09-23T20:29:10.699Z,20.98
2022-09-23T20:31:37.762Z,19.80
2022-09-23T20:34:06.868Z,25.30
2022-09-23T20:36:35.311Z,19.52
2022-09-23T20:39:06.153Z,27.23
2022-09-23T20:41:37.019Z,46.63
2022-09-23T20:44:06.389Z,32.30
2022-09-23T20:46:34.184Z,30.15
2022-09-23T20:49:01.885Z,18.02
2022-09-23T20:51:28.585Z,18.98
2022-09-23T20:53:55.702Z,24.30
2022-09-23T20:56:22.672Z,30.70
2022-09-23T20:58:50.641Z,25.40
2022-09-23T21:01:18.170Z,28.02
2022-09-23T21:03:46.748Z,22.52
2022-09-23T21:06:15.506Z,42.00
2022-09-23T21:08:43.450Z,56.45
2022-09-23T21:11:15.330Z,51.70
2022-09-23T21:13:47.083Z,43.22
2022-09-23T21:16:16.097Z,39.10
2022-09-23T21:18:43.718Z,32.45
2022-09-23T21:21:12.044Z,15.18
2022-09-23T21:23:39.888Z,15.40
2022-09-23T21:26:28.537Z,13.77
2022-09-23T21:29:00.192Z,10.35
2022-09-23T21:31:28.364Z,14.98
2022-09-23T21:33:59.377Z,10.82
2022-09-23T21:36:31.471Z,15.05
2022-09-23T21:38:58.965Z,10.95
2022-09-23T21:41:25.568Z,15.23
2022-09-23T21:43:52.264Z,12.60
2022-09-23T21:46:20.659Z,10.38
2022-09-23T21:48:58.711Z,8.95
2022-09-23T21:51:27.974Z,14.45
2022-09-23T21:53:56.920Z,12.63
2022-09-23T21:56:26.227Z,10.55
2022-09-23T21:58:53.738Z,15.70
2022-09-23T22:01:36.137Z,16.00
2022-09-23T22:04:07.881Z,11.63
2022-09-23T22:06:38.043Z,9.75
2022-09-23T22:09:10.332Z,8.95
2022-09-23T22:11:56.516Z,9.48
2022-09-23T22:14:26.016Z,11.30
2022-09-23T22:16:57.566Z,8.73
2022-09-23T22:19:34.975Z,9.60
2022-09-23T22:22:06.649Z,12.40
2022-09-23T22:24:33.280Z,9.35
2022-09-23T22:27:00.023Z,10.13
2022-09-23T22:29:45.220Z,8.77
2022-09-23T22:32:30.628Z,11.98
2022-09-23T22:34:57.469Z,7.10
2022-09-23T22:37:38.294Z,10.88
2022-09-23T22:40:11.112Z,9.25
2022-09-23T22:42:38.898Z,6.07
2022-09-23T22:45:06.255Z,10.57
2022-09-23T22:47:37.017Z,9.07
2022-09-23T22:50:08.976Z,7.95
2022-09-23T22:52:35.692Z,9.13
2022-09-23T22:55:03.646Z,9.55
2022-09-23T22:57:31.169Z,8.98
2022-09-23T22:59:57.907Z,8.95
2022-09-23T23:02:24.509Z,8.38
2022-09-23T23:04:51.238Z,8.43
2022-09-23T23:07:22.911Z,7.63
2022-09-23T23:09:50.501Z,8.73
2022-09-23T23:12:19.946Z,12.13
2022-09-23T23:14:48.105Z,9.02
2022-09-23T23:17:14.702Z,12.23
2022-09-23T23:19:41.317Z,7.85
2022-09-23T23:22:07.938Z,12.57
2022-09-23T23:24:34.625Z,14.00
2022-09-23T23:27:01.416Z,9.13
2022-09-23T23:29:28.107Z,9.07
2022-09-23T23:31:54.801Z,8.02
2022-09-23T23:34:21.975Z,6.50
2022-09-23T23:36:54.353Z,8.73
2022-09-23T23:39:23.526Z,12.52
2022-09-23T23:41:57.607Z,13.45
2022-09-23T23:44:25.523Z,11.35
2022-09-23T23:46:53.047Z,10.90
2022-09-23T23:49:20.150Z,7.25
2022-09-23T23:51:47.762Z,8.48
2022-09-23T23:54:15.174Z,7.85
2022-09-23T23:56:41.953Z,7.25
2022-09-23T23:59:08.589Z,7.68
